createdAt,value
2018-07-01T00:00:20.016Z,47.20
2018-07-01T00:02:48.678Z,47.20
2018-07-01T00:05:17.240Z,47.20
2018-07-01T00:07:45.821Z,47.20
2018-07-01T00:10:14.443Z,47.30
2018-07-01T00:12:42.967Z,47.30
2018-07-01T00:15:11.548Z,47.40
2018-07-01T00:17:40.072Z,47.40
2018-07-01T00:20:09.579Z,47.50
2018-07-01T00:22:38.592Z,47.60
2018-07-01T00:25:07.396Z,47.60
2018-07-01T00:27:35.933Z,47.70
2018-07-01T00:30:04.972Z,47.80
2018-07-01T00:32:33.579Z,47.70
2018-07-01T00:35:02.118Z,47.80
2018-07-01T00:37:30.663Z,47.80
2018-07-01T00:42:27.376Z,47.90
2018-07-01T00:44:55.964Z,48.00
2018-07-01T00:47:24.481Z,48.50
2018-07-01T00:49:53.008Z,48.10
2018-07-01T00:52:21.566Z,48.10
2018-07-01T00:54:50.109Z,48.20
2018-07-01T00:57:18.623Z,48.20
2018-07-01T00:59:47.161Z,48.30
2018-07-01T01:02:15.793Z,48.40
2018-07-01T01:04:44.291Z,48.40
2018-07-01T01:07:12.879Z,48.50
2018-07-01T01:09:41.396Z,48.60
2018-07-01T01:14:38.247Z,48.70
2018-07-01T01:17:06.849Z,48.80
2018-07-01T01:19:35.344Z,49.50
2018-07-01T01:22:03.961Z,49.00
2018-07-01T01:24:32.462Z,49.00
2018-07-01T01:27:01.020Z,49.00
2018-07-01T01:29:29.501Z,49.00
2018-07-01T01:31:58.104Z,49.00
2018-07-01T01:34:26.687Z,49.00
2018-07-01T01:36:55.279Z,48.90
2018-07-01T01:39:40.122Z,48.90
2018-07-01T01:42:13.977Z,48.90
2018-07-01T01:44:54.569Z,48.90
2018-07-01T01:50:34.299Z,48.90
2018-07-01T01:53:08.040Z,48.90
2018-07-01T01:55:43.894Z,48.90
2018-07-01T01:58:16.171Z,48.90
2018-07-01T02:00:48.566Z,49.00
2018-07-01T02:03:22.378Z,49.10
2018-07-01T02:05:55.478Z,49.10
2018-07-01T02:08:27.486Z,49.10
2018-07-01T02:10:55.967Z,49.20
2018-07-01T02:13:24.614Z,49.20
2018-07-01T02:16:10.602Z,49.40
2018-07-01T02:18:39.096Z,49.20
2018-07-01T02:21:07.591Z,49.20
2018-07-01T02:23:40.298Z,49.30
2018-07-01T02:28:37.018Z,49.30
2018-07-01T02:31:05.575Z,49.30
2018-07-01T02:33:34.061Z,49.30
2018-07-01T02:36:02.539Z,49.40
2018-07-01T02:38:31.006Z,49.50
2018-07-01T02:40:59.485Z,49.50
2018-07-01T02:43:27.979Z,49.60
2018-07-01T02:48:24.800Z,49.60
2018-07-01T02:50:53.260Z,49.60
2018-07-01T02:53:21.909Z,49.60
2018-07-01T02:55:50.420Z,49.70
2018-07-01T02:58:18.920Z,49.70
2018-07-01T03:00:47.485Z,49.80
2018-07-01T03:05:44.137Z,49.90
2018-07-01T03:08:12.690Z,49.90
2018-07-01T03:10:41.150Z,50.00
2018-07-01T03:13:09.675Z,50.00
2018-07-01T03:15:38.137Z,50.00
2018-07-01T03:18:06.712Z,50.00
2018-07-01T03:20:35.176Z,50.00
2018-07-01T03:23:03.648Z,50.10
2018-07-01T03:25:32.098Z,50.00
2018-07-01T03:28:00.548Z,50.10
2018-07-01T03:30:29.034Z,50.10
2018-07-01T03:32:57.590Z,50.20
2018-07-01T03:37:54.224Z,50.80
2018-07-01T03:40:22.870Z,50.30
2018-07-01T03:42:51.392Z,50.40
2018-07-01T03:45:19.886Z,51.00
2018-07-01T03:47:48.387Z,50.40
2018-07-01T03:50:16.918Z,50.50
2018-07-01T03:52:45.388Z,50.70
2018-07-01T03:55:13.909Z,51.00
2018-07-01T03:57:42.436Z,51.00
2018-07-01T04:00:10.960Z,50.80
2018-07-01T04:05:13.847Z,50.60
2018-07-01T04:07:42.329Z,50.70
2018-07-01T04:12:39.061Z,50.80
2018-07-01T04:15:07.556Z,50.90
2018-07-01T04:17:36.051Z,50.90
2018-07-01T04:22:32.729Z,51.10
2018-07-01T04:27:29.361Z,51.00
2018-07-01T04:29:57.916Z,51.00
2018-07-01T04:32:26.442Z,51.20
2018-07-01T04:34:54.988Z,51.30
2018-07-01T04:37:23.497Z,51.50
2018-07-01T04:39:51.946Z,51.60
2018-07-01T04:42:20.419Z,51.40
2018-07-01T04:44:48.902Z,51.10
2018-07-01T04:52:13.762Z,50.80
2018-07-01T04:54:42.247Z,50.80
2018-07-01T04:57:10.799Z,50.80
2018-07-01T04:59:39.276Z,50.70
2018-07-01T05:02:07.890Z,50.80
2018-07-01T05:04:36.386Z,50.80
2018-07-01T05:07:04.900Z,50.80
2018-07-01T05:09:33.379Z,50.80
2018-07-01T05:12:01.914Z,50.80
2018-07-01T05:14:30.935Z,50.70
2018-07-01T05:17:00.023Z,50.70
2018-07-01T05:19:28.560Z,50.90
2018-07-01T05:21:57.087Z,50.90
2018-07-01T05:24:25.584Z,51.00
2018-07-01T05:26:54.095Z,51.00
2018-07-01T05:29:22.622Z,50.80
2018-07-01T05:31:51.131Z,50.70
2018-07-01T05:34:19.619Z,50.70
2018-07-01T05:36:48.135Z,50.50
2018-07-01T05:39:16.630Z,50.50
2018-07-01T05:41:45.208Z,50.40
2018-07-01T05:44:13.852Z,50.30
2018-07-01T05:46:42.366Z,50.30
2018-07-01T05:51:39.129Z,50.20
2018-07-01T05:54:07.673Z,50.10
2018-07-01T05:56:36.151Z,50.10
2018-07-01T05:59:04.920Z,50.10
2018-07-01T06:01:33.757Z,50.10
2018-07-01T06:04:02.278Z,50.00
2018-07-01T06:06:31.231Z,50.00
2018-07-01T06:09:00.228Z,50.00
2018-07-01T06:11:29.091Z,49.80
2018-07-01T06:13:57.776Z,49.70
2018-07-01T06:16:26.250Z,49.80
2018-07-01T06:18:54.907Z,49.90
2018-07-01T06:21:23.375Z,49.90
2018-07-01T06:23:51.857Z,49.90
2018-07-01T06:26:20.396Z,49.70
2018-07-01T06:28:48.952Z,49.70
2018-07-01T06:31:18.308Z,49.60
2018-07-01T06:33:47.237Z,49.70
2018-07-01T06:36:15.808Z,49.70
2018-07-01T06:38:44.264Z,49.80
2018-07-01T06:41:12.844Z,49.80
2018-07-01T06:43:41.298Z,50.00
2018-07-01T06:46:09.824Z,50.00
2018-07-01T06:48:38.290Z,50.00
2018-07-01T06:51:07.563Z,50.70
2018-07-01T06:53:36.140Z,50.20
2018-07-01T06:56:04.841Z,50.20
2018-07-01T06:58:33.557Z,50.20
2018-07-01T07:01:02.080Z,50.30
2018-07-01T07:03:30.553Z,50.40
2018-07-01T07:05:59.070Z,50.20
2018-07-01T07:08:27.582Z,49.90
2018-07-01T07:10:56.119Z,49.40
2018-07-01T07:13:24.727Z,49.20
2018-07-01T07:15:53.234Z,48.70
2018-07-01T07:18:21.773Z,48.50
2018-07-01T07:20:50.247Z,48.20
2018-07-01T07:25:46.879Z,47.80
2018-07-01T07:28:15.365Z,47.80
2018-07-01T07:30:43.866Z,47.70
2018-07-01T07:33:12.616Z,47.60
2018-07-01T07:35:41.154Z,47.60
2018-07-01T07:40:37.826Z,47.60
2018-07-01T07:43:06.439Z,47.60
2018-07-01T07:45:34.929Z,47.70
2018-07-01T07:48:03.527Z,47.70
2018-07-01T07:50:31.971Z,47.70
2018-07-01T07:57:56.974Z,47.30
2018-07-01T08:00:25.481Z,47.10
2018-07-01T08:02:54.031Z,47.10
2018-07-01T08:05:22.525Z,47.00
2018-07-01T08:07:51.025Z,46.90
2018-07-01T08:10:19.507Z,46.80
2018-07-01T08:12:48.025Z,46.80
2018-07-01T08:15:16.523Z,46.70
2018-07-01T08:17:44.949Z,46.70
2018-07-01T08:20:13.541Z,46.60
2018-07-01T08:22:41.959Z,46.50
2018-07-01T08:25:10.522Z,46.50
2018-07-01T08:27:38.976Z,46.40
2018-07-01T08:30:07.487Z,46.40
2018-07-01T08:32:35.957Z,46.30
2018-07-01T08:35:04.450Z,46.30
2018-07-01T08:37:32.934Z,46.20
2018-07-01T08:40:01.456Z,46.00
2018-07-01T08:42:31.959Z,46.00
2018-07-01T08:45:01.595Z,46.00
2018-07-01T08:47:30.560Z,45.90
2018-07-01T08:49:59.126Z,45.90
2018-07-01T08:52:27.769Z,45.90
2018-07-01T08:54:56.801Z,46.40
2018-07-01T08:57:25.388Z,45.60
2018-07-01T09:02:22.523Z,45.60
2018-07-01T09:04:51.086Z,45.60
2018-07-01T09:07:20.972Z,45.50
2018-07-01T09:12:19.952Z,45.30
2018-07-01T09:17:16.793Z,44.70
2018-07-01T09:19:45.309Z,44.60
2018-07-01T09:22:13.940Z,44.70
2018-07-01T09:24:42.592Z,44.80
2018-07-01T09:27:11.294Z,44.90
2018-07-01T09:29:45.220Z,44.90
2018-07-01T09:32:13.727Z,44.70
2018-07-01T09:34:42.313Z,44.60
2018-07-01T09:37:10.820Z,44.50
2018-07-01T09:39:39.426Z,44.40
2018-07-01T09:42:07.965Z,44.30
2018-07-01T09:47:04.811Z,44.10
2018-07-01T09:49:33.377Z,43.90
2018-07-01T09:52:01.887Z,43.90
2018-07-01T09:54:30.418Z,43.80
2018-07-01T09:56:58.953Z,43.60
2018-07-01T09:59:27.510Z,43.60
2018-07-01T10:01:56.061Z,43.50
2018-07-01T10:04:24.668Z,43.40
2018-07-01T10:06:53.155Z,43.30
2018-07-01T10:09:21.700Z,43.20
2018-07-01T10:11:50.216Z,43.00
2018-07-01T10:14:18.736Z,43.10
2018-07-01T10:16:47.233Z,43.00
2018-07-01T10:19:15.735Z,42.70
2018-07-01T10:21:44.224Z,42.80
2018-07-01T10:24:12.757Z,42.80
2018-07-01T10:26:41.255Z,42.70
2018-07-01T10:29:16.078Z,42.60
2018-07-01T10:31:45.342Z,42.60
2018-07-01T10:34:15.051Z,42.40
2018-07-01T10:39:14.143Z,42.30
2018-07-01T10:41:42.905Z,42.30
2018-07-01T10:44:11.750Z,42.20
2018-07-01T10:46:40.316Z,42.20
2018-07-01T10:49:08.870Z,42.10
2018-07-01T10:51:37.464Z,42.00
2018-07-01T10:56:34.092Z,41.90
2018-07-01T11:01:30.687Z,41.80
2018-07-01T11:03:59.173Z,41.80
2018-07-01T11:06:27.671Z,41.70
2018-07-01T11:08:56.160Z,41.60
2018-07-01T11:11:24.662Z,41.60
2018-07-01T11:13:53.161Z,41.60
2018-07-01T11:16:21.842Z,42.00
2018-07-01T11:18:50.307Z,41.10
2018-07-01T11:21:18.789Z,41.10
2018-07-01T11:23:47.263Z,41.20
2018-07-01T11:26:15.744Z,41.20
2018-07-01T11:28:44.189Z,41.10
2018-07-01T11:31:12.638Z,41.00
2018-07-01T11:33:41.190Z,41.00
2018-07-01T11:36:09.682Z,41.00
2018-07-01T11:38:38.143Z,41.00
2018-07-01T11:41:06.623Z,40.80
2018-07-01T11:46:03.899Z,40.70
2018-07-01T11:48:32.396Z,40.60
2018-07-01T11:51:01.573Z,40.70
2018-07-01T11:53:30.079Z,40.60
2018-07-01T12:00:54.955Z,40.60
2018-07-01T12:03:23.418Z,40.40
2018-07-01T12:05:51.900Z,40.30
2018-07-01T12:08:20.364Z,40.20
2018-07-01T12:10:48.780Z,40.30
2018-07-01T12:13:17.299Z,40.20
2018-07-01T12:15:45.754Z,40.10
2018-07-01T12:18:14.197Z,40.20
2018-07-01T12:20:42.646Z,40.20
2018-07-01T12:23:11.190Z,40.20
2018-07-01T12:25:39.644Z,40.00
2018-07-01T12:28:08.131Z,40.00
2018-07-01T12:30:36.608Z,40.10
2018-07-01T12:33:05.299Z,40.00
2018-07-01T12:35:33.776Z,40.00
2018-07-01T12:38:02.323Z,40.00
2018-07-01T12:40:30.826Z,40.00
2018-07-01T12:42:59.375Z,39.90
2018-07-01T12:47:55.958Z,39.80
2018-07-01T12:50:24.449Z,39.70
2018-07-01T12:52:52.876Z,39.70
2018-07-01T12:55:21.361Z,39.70
2018-07-01T12:57:49.820Z,39.70
2018-07-01T13:00:18.285Z,39.60
2018-07-01T13:02:46.721Z,39.60
2018-07-01T13:05:15.206Z,39.60
2018-07-01T13:07:43.683Z,39.60
2018-07-01T13:10:12.183Z,39.50
2018-07-01T13:12:40.644Z,39.50
2018-07-01T13:15:09.130Z,39.50
2018-07-01T13:17:37.616Z,39.40
2018-07-01T13:20:06.205Z,39.40
2018-07-01T13:22:34.725Z,39.30
2018-07-01T13:25:03.245Z,39.30
2018-07-01T13:27:31.713Z,39.30
2018-07-01T13:30:00.702Z,39.40
2018-07-01T13:32:29.554Z,39.50
2018-07-01T13:34:58.093Z,39.50
2018-07-01T13:39:54.790Z,39.50
2018-07-01T13:42:23.256Z,39.40
2018-07-01T13:44:51.740Z,39.40
2018-07-01T13:47:20.217Z,39.20
2018-07-01T13:49:48.724Z,39.10
2018-07-01T13:52:17.181Z,39.20
2018-07-01T13:57:13.845Z,39.50
2018-07-01T13:59:42.269Z,39.20
2018-07-01T14:02:10.815Z,39.10
2018-07-01T14:07:07.415Z,38.40
2018-07-01T14:09:35.917Z,38.80
2018-07-01T14:12:04.502Z,38.70
2018-07-01T14:17:01.056Z,38.70
2018-07-01T14:19:29.575Z,38.80
2018-07-01T14:24:30.325Z,38.70
2018-07-01T14:26:58.779Z,38.60
2018-07-01T14:29:27.272Z,38.60
2018-07-01T14:31:55.715Z,38.60
2018-07-01T14:36:52.389Z,38.50
2018-07-01T14:44:17.162Z,38.60
2018-07-01T14:46:45.679Z,38.40
2018-07-01T14:49:14.176Z,38.40
2018-07-01T14:51:42.587Z,38.40
2018-07-01T14:54:11.112Z,38.20
2018-07-01T14:56:39.553Z,38.20
2018-07-01T14:59:08.057Z,38.10
2018-07-01T15:01:36.563Z,38.10
2018-07-01T15:04:05.030Z,38.00
2018-07-01T15:06:33.453Z,37.80
2018-07-01T15:09:02.544Z,37.90
2018-07-01T15:11:31.010Z,37.80
2018-07-01T15:13:59.444Z,37.80
2018-07-01T15:16:27.952Z,37.70
2018-07-01T15:18:56.392Z,37.60
2018-07-01T15:21:24.860Z,37.50
2018-07-01T15:23:53.340Z,37.40
2018-07-01T15:26:21.797Z,37.40
2018-07-01T15:31:18.589Z,37.30
2018-07-01T15:33:47.049Z,37.20
2018-07-01T15:36:15.541Z,37.10
2018-07-01T15:38:44.493Z,37.10
2018-07-01T15:41:13.028Z,37.00
2018-07-01T15:43:41.478Z,37.00
2018-07-01T15:46:10.002Z,37.00
2018-07-01T15:48:38.532Z,36.90
2018-07-01T15:51:07.089Z,36.80
2018-07-01T15:53:35.588Z,36.70
2018-07-01T15:56:04.344Z,36.70
2018-07-01T15:58:32.858Z,36.70
2018-07-01T16:01:01.417Z,36.80
2018-07-01T16:03:29.870Z,36.60
2018-07-01T16:05:58.345Z,36.70
2018-07-01T16:08:26.818Z,36.60
2018-07-01T16:10:55.295Z,36.60
2018-07-01T16:13:23.779Z,36.60
2018-07-01T16:15:52.298Z,36.60
2018-07-01T16:18:21.608Z,36.50
2018-07-01T16:20:50.089Z,36.50
2018-07-01T16:23:18.638Z,36.50
2018-07-01T16:25:52.526Z,36.60
2018-07-01T16:28:26.397Z,36.60
2018-07-01T16:30:54.877Z,36.60
2018-07-01T16:33:24.031Z,36.60
2018-07-01T16:35:52.548Z,36.70
2018-07-01T16:38:21.269Z,36.80
2018-07-01T16:40:49.856Z,36.80
2018-07-01T16:43:18.373Z,36.90
2018-07-01T16:45:47.001Z,36.80
2018-07-01T16:48:15.831Z,36.90
2018-07-01T16:50:44.523Z,36.90
2018-07-01T16:58:09.487Z,37.00
2018-07-01T17:00:37.978Z,37.00
2018-07-01T17:03:06.474Z,37.00
2018-07-01T17:05:36.480Z,37.00
2018-07-01T17:08:05.031Z,36.90
2018-07-01T17:10:33.497Z,36.90
2018-07-01T17:13:01.921Z,37.10
2018-07-01T17:17:58.891Z,37.10
2018-07-01T17:22:55.591Z,37.10
2018-07-01T17:25:24.093Z,37.20
2018-07-01T17:27:52.545Z,37.20
2018-07-01T17:30:21.271Z,37.20
2018-07-01T17:32:55.082Z,37.20
2018-07-01T17:35:23.669Z,37.20
2018-07-01T17:37:52.166Z,37.20
2018-07-01T17:40:20.679Z,37.10
2018-07-01T17:42:49.222Z,37.10
2018-07-01T17:45:17.769Z,37.50
2018-07-01T17:50:14.571Z,37.10
2018-07-01T17:52:43.063Z,37.00
2018-07-01T17:55:11.501Z,37.00
2018-07-01T18:00:08.206Z,37.30
2018-07-01T18:02:36.863Z,37.50
2018-07-01T18:05:05.994Z,37.80
2018-07-01T18:07:34.555Z,38.00
2018-07-01T18:10:03.070Z,38.00
2018-07-01T18:12:31.592Z,38.10
2018-07-01T18:15:00.072Z,38.20
2018-07-01T18:17:28.597Z,38.20
2018-07-01T18:19:57.073Z,38.40
2018-07-01T18:29:50.114Z,38.10
2018-07-01T18:32:18.618Z,38.10
2018-07-01T18:34:47.090Z,38.10
2018-07-01T18:37:15.720Z,38.10
2018-07-01T18:39:44.202Z,38.20
2018-07-01T18:42:12.751Z,38.20
2018-07-01T18:44:41.238Z,38.20
2018-07-01T18:47:09.906Z,38.20
2018-07-01T18:52:06.612Z,38.30
2018-07-01T18:54:35.154Z,38.30
2018-07-01T18:59:31.839Z,38.40
2018-07-01T19:02:00.322Z,38.50
2018-07-01T19:04:28.851Z,38.50
2018-07-01T19:06:57.342Z,38.50
2018-07-01T19:09:25.858Z,38.50
2018-07-01T19:11:54.325Z,38.40
2018-07-01T19:14:22.840Z,38.40
2018-07-01T19:19:19.777Z,38.50
2018-07-01T19:21:48.251Z,38.70
2018-07-01T19:24:16.749Z,38.80
2018-07-01T19:26:45.213Z,38.70
2018-07-01T19:29:13.724Z,38.90
2018-07-01T19:31:42.178Z,38.90
2018-07-01T19:34:10.672Z,38.80
2018-07-01T19:36:39.250Z,38.90
2018-07-01T19:39:09.286Z,39.00
2018-07-01T19:41:38.061Z,39.10
2018-07-01T19:44:06.573Z,39.10
2018-07-01T19:46:39.139Z,39.20
2018-07-01T19:49:07.611Z,39.20
2018-07-01T19:51:36.111Z,39.30
2018-07-01T19:54:04.624Z,39.20
2018-07-01T19:56:33.132Z,39.20
2018-07-01T19:59:01.590Z,39.30
2018-07-01T20:01:30.055Z,39.40
2018-07-01T20:03:58.533Z,39.50
2018-07-01T20:06:27.092Z,39.50
2018-07-01T20:08:55.485Z,39.60
2018-07-01T20:11:23.938Z,39.70
2018-07-01T20:16:20.565Z,40.10
2018-07-01T20:18:49.059Z,39.80
2018-07-01T20:21:17.564Z,39.80
2018-07-01T20:23:46.070Z,39.90
2018-07-01T20:26:14.487Z,40.00
2018-07-01T20:28:42.987Z,40.00
2018-07-01T20:31:11.455Z,40.10
2018-07-01T20:33:39.937Z,40.20
2018-07-01T20:36:08.564Z,40.20
2018-07-01T20:38:36.979Z,40.20
2018-07-01T20:43:33.620Z,40.40
2018-07-01T20:46:02.192Z,40.60
2018-07-01T20:48:30.692Z,40.60
2018-07-01T20:50:59.235Z,40.60
2018-07-01T20:53:27.724Z,40.70
2018-07-01T20:55:56.202Z,40.60
2018-07-01T20:58:24.715Z,40.70
2018-07-01T21:00:53.183Z,40.80
2018-07-01T21:03:21.721Z,40.90
2018-07-01T21:05:50.418Z,40.90
2018-07-01T21:08:18.806Z,41.00
2018-07-01T21:13:15.668Z,41.10
2018-07-01T21:18:12.340Z,41.20
2018-07-01T21:23:09.002Z,41.40
2018-07-01T21:25:37.521Z,41.50
2018-07-01T21:28:06.047Z,41.60
2018-07-01T21:33:02.745Z,41.80
2018-07-01T21:35:31.282Z,41.80
2018-07-01T21:37:59.787Z,41.90
2018-07-01T21:42:56.517Z,42.20
2018-07-01T21:45:25.041Z,42.30
2018-07-01T21:47:53.506Z,42.30
2018-07-01T21:50:22.104Z,42.20
2018-07-01T21:52:50.581Z,42.20
2018-07-01T21:55:19.135Z,42.20
2018-07-01T21:57:47.648Z,42.20
2018-07-01T22:00:20.378Z,42.20
2018-07-01T22:02:48.871Z,42.10
2018-07-01T22:05:17.371Z,42.50
2018-07-01T22:07:45.910Z,42.80
2018-07-01T22:10:19.543Z,42.90
2018-07-01T22:12:52.573Z,43.10
2018-07-01T22:15:32.317Z,43.10
2018-07-01T22:18:00.774Z,43.10
2018-07-01T22:20:29.237Z,43.90
2018-07-01T22:22:57.682Z,43.30
2018-07-01T22:25:26.251Z,43.40
2018-07-01T22:27:54.827Z,43.50
2018-07-01T22:30:23.414Z,43.50
2018-07-01T22:32:53.831Z,43.70
2018-07-01T22:35:22.396Z,43.70
2018-07-01T22:37:50.963Z,43.80
2018-07-01T22:40:19.460Z,43.90
2018-07-01T22:42:48.095Z,44.00
2018-07-01T22:45:16.801Z,44.00
2018-07-01T22:47:45.322Z,44.20
2018-07-01T22:50:14.732Z,44.20
2018-07-01T22:52:43.227Z,44.30
2018-07-01T22:57:40.149Z,44.50
2018-07-01T23:00:08.755Z,44.50
2018-07-01T23:02:51.142Z,44.50
2018-07-01T23:05:20.257Z,44.60
2018-07-01T23:07:49.562Z,44.70
2018-07-01T23:10:19.566Z,44.60
2018-07-01T23:12:48.436Z,44.70
2018-07-01T23:15:17.401Z,44.90
2018-07-01T23:17:45.986Z,45.30
2018-07-01T23:20:14.477Z,45.00
2018-07-01T23:22:43.418Z,45.10
2018-07-01T23:25:13.138Z,45.00
2018-07-01T23:27:42.118Z,45.20
2018-07-01T23:30:10.743Z,45.30
2018-07-01T23:32:39.356Z,45.30
2018-07-01T23:35:07.999Z,45.30
2018-07-01T23:37:36.970Z,45.30
2018-07-01T23:40:09.245Z,45.20
2018-07-01T23:42:38.025Z,45.40
2018-07-01T23:45:08.205Z,45.40
2018-07-01T23:47:36.776Z,45.60
2018-07-01T23:50:06.083Z,45.50
2018-07-01T23:52:34.730Z,45.70
2018-07-01T23:55:03.347Z,45.70
2018-07-01T23:57:31.900Z,45.70
